createdAt,value
2017-08-21T00:00:21.534Z,16.16
2017-08-21T00:02:48.930Z,16.14
2017-08-21T00:05:16.327Z,16.12
2017-08-21T00:07:43.736Z,16.10
2017-08-21T00:10:11.127Z,16.09
2017-08-21T00:12:38.547Z,16.11
2017-08-21T00:15:05.950Z,16.12
2017-08-21T00:17:33.366Z,16.11
2017-08-21T00:20:00.768Z,16.10
2017-08-21T00:22:28.206Z,16.11
2017-08-21T00:24:55.598Z,16.11
2017-08-21T00:27:22.993Z,16.11
2017-08-21T00:29:50.402Z,16.10
2017-08-21T00:32:17.799Z,16.08
2017-08-21T00:34:45.198Z,16.05
2017-08-21T00:37:12.615Z,16.01
2017-08-21T00:39:40.015Z,15.97
2017-08-21T00:42:07.413Z,15.97
2017-08-21T00:44:34.830Z,15.91
2017-08-21T00:47:02.228Z,15.88
2017-08-21T00:49:29.630Z,15.84
2017-08-21T00:51:57.183Z,15.80
2017-08-21T00:54:24.585Z,15.78
2017-08-21T00:56:51.986Z,15.73
2017-08-21T00:59:19.398Z,15.73
2017-08-21T01:01:46.794Z,15.71
2017-08-21T01:04:14.187Z,15.72
2017-08-21T01:06:41.639Z,15.74
2017-08-21T01:09:09.027Z,15.69
2017-08-21T01:11:36.426Z,15.63
2017-08-21T01:14:03.836Z,15.57
2017-08-21T01:16:31.230Z,15.50
2017-08-21T01:18:58.634Z,15.44
2017-08-21T01:21:26.192Z,15.39
2017-08-21T01:23:53.582Z,15.38
2017-08-21T01:26:20.986Z,15.34
2017-08-21T01:28:48.390Z,15.31
2017-08-21T01:31:15.778Z,15.29
2017-08-21T01:33:43.179Z,15.34
2017-08-21T01:36:11.018Z,15.33
2017-08-21T01:38:38.414Z,15.29
2017-08-21T01:41:05.815Z,15.25
2017-08-21T01:43:33.272Z,15.23
2017-08-21T01:46:00.666Z,15.22
2017-08-21T01:48:28.054Z,15.19
2017-08-21T01:50:55.482Z,15.21
2017-08-21T01:53:22.878Z,15.15
2017-08-21T01:55:50.274Z,15.17
2017-08-21T01:58:17.686Z,15.19
2017-08-21T02:00:45.083Z,15.17
2017-08-21T02:03:12.487Z,15.15
2017-08-21T02:05:39.994Z,15.16
2017-08-21T02:08:07.401Z,15.13
2017-08-21T02:10:34.795Z,15.12
2017-08-21T02:13:02.290Z,15.14
2017-08-21T02:15:29.690Z,15.14
2017-08-21T02:17:57.088Z,15.17
2017-08-21T02:20:24.539Z,15.16
2017-08-21T02:22:51.934Z,15.13
2017-08-21T02:25:19.337Z,15.11
2017-08-21T02:27:46.742Z,15.11
2017-08-21T02:30:14.138Z,15.09
2017-08-21T02:32:41.531Z,15.07
2017-08-21T02:35:08.954Z,15.03
2017-08-21T02:37:36.345Z,14.99
2017-08-21T02:40:03.743Z,14.96
2017-08-21T02:42:31.541Z,14.97
2017-08-21T02:44:58.940Z,15.01
2017-08-21T02:47:26.334Z,15.05
2017-08-21T02:49:53.743Z,15.08
2017-08-21T02:52:21.143Z,15.09
2017-08-21T02:54:48.534Z,15.07
2017-08-21T02:57:16.086Z,15.08
2017-08-21T02:59:43.487Z,15.08
2017-08-21T03:02:10.882Z,15.08
2017-08-21T03:04:38.290Z,15.07
2017-08-21T03:07:05.690Z,14.98
2017-08-21T03:09:33.092Z,14.92
2017-08-21T03:12:00.648Z,14.91
2017-08-21T03:14:28.034Z,14.87
2017-08-21T03:16:55.436Z,14.80
2017-08-21T03:19:22.876Z,14.76
2017-08-21T03:21:50.273Z,14.72
2017-08-21T03:24:17.674Z,14.66
2017-08-21T03:26:45.094Z,14.60
2017-08-21T03:29:12.495Z,14.57
2017-08-21T03:31:39.892Z,14.49
2017-08-21T03:34:07.450Z,14.40
2017-08-21T03:36:34.837Z,14.35
2017-08-21T03:39:02.233Z,14.43
2017-08-21T03:41:29.791Z,14.48
2017-08-21T03:43:57.186Z,14.50
2017-08-21T03:46:24.580Z,14.50
2017-08-21T03:48:52.315Z,14.48
2017-08-21T03:51:19.709Z,14.43
2017-08-21T03:53:47.109Z,14.38
2017-08-21T03:56:14.683Z,14.30
2017-08-21T03:58:42.056Z,14.24
2017-08-21T04:01:09.452Z,14.21
2017-08-21T04:03:36.878Z,14.20
2017-08-21T04:06:04.274Z,14.18
2017-08-21T04:08:31.671Z,14.17
2017-08-21T04:10:59.218Z,14.13
2017-08-21T04:13:26.611Z,14.11
2017-08-21T04:15:54.003Z,14.11
2017-08-21T04:18:21.446Z,14.08
2017-08-21T04:20:48.846Z,14.08
2017-08-21T04:23:16.243Z,14.09
2017-08-21T04:25:43.666Z,14.12
2017-08-21T04:28:11.062Z,14.14
2017-08-21T04:30:38.461Z,14.20
2017-08-21T04:33:05.867Z,14.24
2017-08-21T04:35:33.265Z,14.30
2017-08-21T04:38:00.668Z,14.31
2017-08-21T04:40:28.086Z,14.28
2017-08-21T04:42:55.482Z,14.30
2017-08-21T04:45:22.879Z,14.29
2017-08-21T04:47:50.295Z,14.26
2017-08-21T04:50:17.690Z,14.22
2017-08-21T04:52:45.087Z,14.23
2017-08-21T04:55:12.494Z,14.21
2017-08-21T04:57:39.890Z,14.18
2017-08-21T05:00:07.282Z,14.17
2017-08-21T05:02:34.994Z,14.15
2017-08-21T05:05:02.382Z,14.12
2017-08-21T05:07:29.778Z,14.10
2017-08-21T05:09:57.333Z,14.08
2017-08-21T05:12:24.726Z,14.07
2017-08-21T05:14:52.128Z,14.06
2017-08-21T05:17:19.886Z,14.06
2017-08-21T05:19:47.292Z,14.12
2017-08-21T05:22:14.701Z,14.17
2017-08-21T05:24:42.202Z,14.28
2017-08-21T05:27:09.603Z,14.43
2017-08-21T05:29:37.006Z,14.53
2017-08-21T05:32:04.453Z,14.60
2017-08-21T05:34:31.848Z,14.69
2017-08-21T05:36:59.246Z,14.78
2017-08-21T05:39:26.671Z,14.88
2017-08-21T05:41:54.071Z,14.99
2017-08-21T05:44:21.469Z,15.06
2017-08-21T05:46:48.914Z,15.15
2017-08-21T05:49:16.313Z,15.24
2017-08-21T05:51:43.710Z,15.32
2017-08-21T05:54:11.582Z,15.36
2017-08-21T05:56:38.990Z,15.44
2017-08-21T05:59:06.377Z,15.52
2017-08-21T06:01:33.788Z,15.56
2017-08-21T06:04:01.183Z,15.63
2017-08-21T06:06:28.578Z,15.70
2017-08-21T06:08:56.127Z,15.78
2017-08-21T06:11:23.526Z,15.89
2017-08-21T06:13:50.930Z,15.95
2017-08-21T06:16:18.491Z,16.02
2017-08-21T06:18:45.886Z,16.07
2017-08-21T06:21:13.324Z,16.08
2017-08-21T06:23:40.726Z,16.07
2017-08-21T06:26:08.566Z,16.06
2017-08-21T06:28:35.962Z,16.06
2017-08-21T06:31:03.515Z,16.04
2017-08-21T06:33:30.911Z,16.07
2017-08-21T06:35:58.302Z,16.06
2017-08-21T06:38:25.743Z,16.02
2017-08-21T06:40:53.151Z,16.00
2017-08-21T06:43:20.550Z,15.99
2017-08-21T06:45:47.975Z,15.97
2017-08-21T06:48:15.374Z,15.92
2017-08-21T06:50:42.790Z,15.93
2017-08-21T06:53:10.672Z,15.95
2017-08-21T06:55:38.506Z,16.00
2017-08-21T06:58:05.906Z,15.98
2017-08-21T07:00:33.450Z,16.01
2017-08-21T07:03:00.851Z,16.06
2017-08-21T07:05:28.236Z,16.06
2017-08-21T07:07:55.642Z,16.13
2017-08-21T07:10:23.039Z,16.22
2017-08-21T07:12:50.434Z,16.27
2017-08-21T07:15:17.842Z,16.24
2017-08-21T07:17:45.234Z,16.27
2017-08-21T07:20:12.634Z,16.31
2017-08-21T07:22:40.186Z,16.41
2017-08-21T07:25:07.619Z,16.40
2017-08-21T07:27:35.017Z,16.44
2017-08-21T07:30:02.888Z,16.50
2017-08-21T07:32:30.288Z,16.56
2017-08-21T07:34:57.678Z,16.64
2017-08-21T07:37:25.227Z,16.81
2017-08-21T07:39:52.626Z,16.89
2017-08-21T07:42:20.022Z,16.87
2017-08-21T07:44:47.526Z,16.93
2017-08-21T07:47:14.922Z,16.95
2017-08-21T07:49:42.322Z,16.99
2017-08-21T07:52:09.871Z,17.11
2017-08-21T07:54:37.266Z,17.20
2017-08-21T07:57:04.670Z,17.26
2017-08-21T07:59:32.179Z,17.33
2017-08-21T08:01:59.575Z,17.47
2017-08-21T08:04:26.966Z,17.44
2017-08-21T08:06:54.723Z,17.57
2017-08-21T08:09:22.119Z,17.61
2017-08-21T08:11:49.520Z,17.62
2017-08-21T08:14:16.940Z,17.54
2017-08-21T08:16:44.337Z,17.70
2017-08-21T08:19:11.732Z,17.80
2017-08-21T08:21:39.283Z,17.85
2017-08-21T08:24:06.698Z,17.91
2017-08-21T08:26:34.113Z,18.02
2017-08-21T08:29:01.552Z,18.09
2017-08-21T08:31:28.946Z,18.17
2017-08-21T08:33:56.342Z,18.32
2017-08-21T08:36:23.762Z,18.41
2017-08-21T08:38:51.170Z,18.47
2017-08-21T08:41:18.559Z,18.48
2017-08-21T08:43:46.081Z,18.64
2017-08-21T08:46:13.466Z,18.76
2017-08-21T08:48:40.871Z,18.78
2017-08-21T08:51:08.279Z,18.89
2017-08-21T08:53:35.658Z,18.97
2017-08-21T08:56:03.062Z,19.09
2017-08-21T08:58:30.794Z,19.26
2017-08-21T09:00:58.194Z,19.43
2017-08-21T09:03:25.602Z,19.59
2017-08-21T09:05:53.011Z,19.73
2017-08-21T09:08:20.427Z,19.83
2017-08-21T09:10:47.807Z,19.97
2017-08-21T09:13:15.308Z,20.07
2017-08-21T09:15:42.686Z,20.27
2017-08-21T09:18:10.074Z,20.48
2017-08-21T09:20:37.911Z,20.58
2017-08-21T09:23:05.294Z,20.75
2017-08-21T09:25:32.703Z,20.61
2017-08-21T09:28:00.211Z,20.79
2017-08-21T09:30:27.594Z,20.92
2017-08-21T09:32:54.987Z,21.12
2017-08-21T09:35:22.487Z,21.37
2017-08-21T09:37:50.047Z,21.71
2017-08-21T09:40:17.429Z,22.04
2017-08-21T09:42:45.227Z,22.38
2017-08-21T09:45:12.619Z,22.72
2017-08-21T09:47:40.019Z,23.07
2017-08-21T09:50:07.426Z,22.88
2017-08-21T09:52:34.815Z,23.26
2017-08-21T09:55:02.207Z,23.32
2017-08-21T09:57:29.754Z,23.62
2017-08-21T09:59:57.158Z,23.52
2017-08-21T10:02:24.554Z,23.62
2017-08-21T10:04:51.974Z,23.36
2017-08-21T10:07:19.370Z,23.35
2017-08-21T10:09:47.151Z,23.49
2017-08-21T10:12:14.698Z,23.64
2017-08-21T10:14:42.088Z,23.82
2017-08-21T10:17:09.481Z,24.08
2017-08-21T10:19:37.030Z,24.56
2017-08-21T10:22:04.434Z,25.00
2017-08-21T10:24:31.833Z,25.34
2017-08-21T10:26:59.535Z,25.83
2017-08-21T10:29:26.931Z,25.83
2017-08-21T10:31:54.326Z,25.55
2017-08-21T10:34:21.875Z,25.09
2017-08-21T10:36:49.270Z,25.12
2017-08-21T10:39:16.675Z,25.52
2017-08-21T10:41:44.087Z,25.63
2017-08-21T10:44:11.483Z,25.61
2017-08-21T10:46:38.889Z,25.93
2017-08-21T10:49:06.315Z,25.97
2017-08-21T10:51:33.718Z,25.22
2017-08-21T10:54:01.115Z,25.36
2017-08-21T10:56:28.535Z,25.55
2017-08-21T10:58:55.931Z,25.51
2017-08-21T11:01:23.330Z,26.00
2017-08-21T11:03:51.039Z,26.31
2017-08-21T11:06:18.442Z,26.18
2017-08-21T11:08:45.836Z,25.84
2017-08-21T11:11:13.597Z,25.69
2017-08-21T11:13:40.983Z,25.84
2017-08-21T11:16:08.379Z,25.53
2017-08-21T11:18:35.818Z,24.79
2017-08-21T11:21:03.210Z,24.54
2017-08-21T11:23:30.616Z,24.32
2017-08-21T11:25:58.034Z,23.94
2017-08-21T11:28:25.431Z,23.96
2017-08-21T11:30:52.830Z,24.03
2017-08-21T11:33:20.387Z,24.09
2017-08-21T11:35:47.827Z,24.37
2017-08-21T11:38:15.220Z,25.00
2017-08-21T11:40:42.645Z,25.42
2017-08-21T11:43:10.042Z,25.66
2017-08-21T11:45:37.434Z,25.92
2017-08-21T11:48:04.987Z,26.41
2017-08-21T11:50:32.390Z,26.68
2017-08-21T11:52:59.787Z,26.99
2017-08-21T11:55:27.339Z,27.15
2017-08-21T11:57:54.738Z,26.62
2017-08-21T12:00:22.134Z,26.83
2017-08-21T12:02:49.682Z,26.75
2017-08-21T12:05:17.072Z,27.31
2017-08-21T12:07:44.470Z,27.27
2017-08-21T12:10:12.242Z,26.51
2017-08-21T12:12:39.643Z,26.74
2017-08-21T12:15:07.059Z,26.89
2017-08-21T12:17:34.471Z,26.47
2017-08-21T12:20:01.862Z,25.51
2017-08-21T12:22:29.255Z,25.87
2017-08-21T12:24:56.804Z,26.34
2017-08-21T12:27:24.202Z,26.58
2017-08-21T12:29:51.591Z,26.79
2017-08-21T12:32:19.091Z,26.61
2017-08-21T12:34:46.479Z,26.28
2017-08-21T12:37:13.879Z,26.52
2017-08-21T12:39:41.286Z,26.34
2017-08-21T12:42:08.690Z,25.95
2017-08-21T12:44:36.078Z,26.09
2017-08-21T12:47:03.827Z,26.26
2017-08-21T12:49:31.218Z,25.85
2017-08-21T12:51:58.619Z,25.69
2017-08-21T12:54:26.127Z,24.90
2017-08-21T12:56:53.523Z,25.07
2017-08-21T12:59:20.927Z,25.65
2017-08-21T13:01:48.769Z,25.40
2017-08-21T13:04:16.167Z,25.12
2017-08-21T13:06:43.558Z,24.97
2017-08-21T13:09:10.968Z,25.02
2017-08-21T13:11:38.363Z,25.63
2017-08-21T13:14:05.763Z,26.11
2017-08-21T13:16:33.323Z,26.71
2017-08-21T13:19:00.717Z,26.40
2017-08-21T13:21:28.109Z,25.97
2017-08-21T13:23:55.663Z,25.73
2017-08-21T13:26:23.052Z,25.96
2017-08-21T13:28:50.450Z,26.15
2017-08-21T13:31:17.865Z,26.07
2017-08-21T13:33:45.255Z,26.28
2017-08-21T13:36:12.646Z,26.22
2017-08-21T13:38:40.090Z,26.53
2017-08-21T13:41:07.486Z,26.73
2017-08-21T13:43:34.883Z,26.67
2017-08-21T13:46:02.430Z,26.88
2017-08-21T13:48:29.823Z,26.64
2017-08-21T13:50:57.230Z,26.52
2017-08-21T13:53:24.642Z,26.25
2017-08-21T13:55:52.048Z,25.84
2017-08-21T13:58:19.451Z,25.36
2017-08-21T14:00:46.894Z,25.45
2017-08-21T14:03:14.298Z,25.71
2017-08-21T14:05:41.707Z,26.04
2017-08-21T14:08:09.118Z,26.22
2017-08-21T14:10:36.523Z,26.30
2017-08-21T14:13:03.923Z,26.26
2017-08-21T14:15:31.469Z,25.78
2017-08-21T14:17:58.862Z,25.76
2017-08-21T14:20:26.313Z,25.52
2017-08-21T14:22:54.038Z,25.65
2017-08-21T14:25:21.432Z,25.72
2017-08-21T14:27:48.887Z,25.77
2017-08-21T14:30:16.434Z,25.53
2017-08-21T14:33:15.515Z,25.22
2017-08-21T14:35:42.928Z,25.29
2017-08-21T14:38:10.319Z,25.15
2017-08-21T14:40:37.718Z,24.95
2017-08-21T14:43:05.158Z,24.90
2017-08-21T14:45:32.562Z,24.98
2017-08-21T14:47:59.963Z,25.12
2017-08-21T14:50:27.518Z,24.98
2017-08-21T14:52:54.915Z,24.48
2017-08-21T14:55:22.307Z,24.34
2017-08-21T14:57:50.019Z,24.09
2017-08-21T15:00:17.419Z,24.17
2017-08-21T15:02:44.815Z,24.04
2017-08-21T15:05:12.277Z,23.81
2017-08-21T15:07:39.650Z,23.78
2017-08-21T15:10:07.054Z,23.59
2017-08-21T15:12:34.930Z,23.45
2017-08-21T15:15:02.327Z,23.44
2017-08-21T15:17:29.726Z,23.37
2017-08-21T15:19:57.279Z,23.50
2017-08-21T15:22:24.676Z,23.61
2017-08-21T15:24:52.071Z,23.64
2017-08-21T15:27:19.479Z,23.85
2017-08-21T15:29:46.882Z,23.68
2017-08-21T15:32:14.278Z,23.72
2017-08-21T15:34:41.697Z,23.72
2017-08-21T15:37:09.098Z,23.64
2017-08-21T15:39:36.490Z,23.75
2017-08-21T15:42:03.915Z,23.76
2017-08-21T15:44:31.311Z,23.70
2017-08-21T15:46:58.707Z,23.75
2017-08-21T15:49:26.143Z,23.77
2017-08-21T15:51:53.538Z,23.91
2017-08-21T15:54:20.931Z,23.97
2017-08-21T15:56:48.333Z,23.61
2017-08-21T15:59:15.731Z,23.47
2017-08-21T16:01:43.127Z,23.46
2017-08-21T16:04:10.547Z,23.46
2017-08-21T16:06:37.942Z,23.39
2017-08-21T16:09:05.339Z,23.38
2017-08-21T16:11:33.093Z,23.19
2017-08-21T16:14:00.491Z,23.00
2017-08-21T16:16:27.886Z,23.05
2017-08-21T16:18:55.376Z,23.28
2017-08-21T16:21:22.771Z,23.35
2017-08-21T16:23:50.165Z,23.47
2017-08-21T16:26:17.580Z,23.24
2017-08-21T16:28:44.975Z,23.29
2017-08-21T16:31:12.370Z,23.03
2017-08-21T16:33:39.778Z,22.97
2017-08-21T16:36:07.172Z,22.89
2017-08-21T16:38:34.567Z,22.85
2017-08-21T16:41:02.075Z,22.77
2017-08-21T16:43:29.466Z,22.66
2017-08-21T16:45:56.863Z,22.55
2017-08-21T16:48:24.369Z,22.73
2017-08-21T16:50:51.791Z,22.61
2017-08-21T16:53:19.158Z,22.49
2017-08-21T16:55:46.761Z,22.75
2017-08-21T16:58:14.156Z,22.75
2017-08-21T17:00:41.555Z,22.86
2017-08-21T17:03:09.001Z,22.92
2017-08-21T17:05:36.392Z,22.80
2017-08-21T17:08:03.786Z,22.83
2017-08-21T17:10:31.667Z,22.87
2017-08-21T17:12:59.059Z,22.70
2017-08-21T17:15:26.455Z,22.63
2017-08-21T17:17:53.877Z,22.75
2017-08-21T17:20:21.270Z,22.79
2017-08-21T17:22:48.670Z,22.78
2017-08-21T17:25:16.083Z,22.81
2017-08-21T17:27:43.486Z,22.81
2017-08-21T17:30:10.883Z,22.72
2017-08-21T17:32:38.295Z,22.66
2017-08-21T17:35:05.694Z,22.58
2017-08-21T17:37:33.098Z,22.52
2017-08-21T17:40:00.611Z,22.44
2017-08-21T17:42:27.998Z,22.40
2017-08-21T17:44:55.398Z,22.36
2017-08-21T17:47:22.952Z,22.28
2017-08-21T17:49:50.346Z,22.19
2017-08-21T17:52:17.745Z,22.06
2017-08-21T17:54:45.379Z,22.01
2017-08-21T17:57:12.774Z,21.88
2017-08-21T17:59:40.170Z,21.80
2017-08-21T18:02:07.573Z,21.67
2017-08-21T18:04:34.971Z,21.62
2017-08-21T18:07:02.372Z,21.55
2017-08-21T18:09:30.135Z,21.52
2017-08-21T18:11:57.531Z,21.42
2017-08-21T18:14:24.923Z,21.36
2017-08-21T18:16:52.474Z,21.26
2017-08-21T18:19:19.871Z,21.17
2017-08-21T18:21:47.266Z,21.06
2017-08-21T18:24:14.680Z,20.94
2017-08-21T18:26:42.075Z,20.86
2017-08-21T18:29:09.475Z,20.74
2017-08-21T18:31:37.026Z,20.61
2017-08-21T18:34:04.426Z,20.52
2017-08-21T18:36:31.838Z,20.44
2017-08-21T18:38:59.279Z,20.34
2017-08-21T18:41:26.676Z,20.31
2017-08-21T18:43:54.084Z,20.24
2017-08-21T18:46:21.522Z,20.21
2017-08-21T18:48:48.918Z,20.15
2017-08-21T18:51:16.358Z,20.08
2017-08-21T18:53:43.767Z,20.02
2017-08-21T18:56:11.162Z,19.96
2017-08-21T18:58:38.559Z,19.90
2017-08-21T19:01:06.322Z,19.81
2017-08-21T19:03:33.714Z,19.72
2017-08-21T19:06:01.119Z,19.56
2017-08-21T19:08:28.612Z,19.47
2017-08-21T19:10:56.011Z,19.34
2017-08-21T19:13:23.407Z,19.20
2017-08-21T19:15:51.270Z,19.13
2017-08-21T19:18:18.670Z,19.07
2017-08-21T19:20:46.066Z,19.00
2017-08-21T19:23:13.470Z,18.94
2017-08-21T19:25:40.880Z,18.88
2017-08-21T19:28:08.275Z,18.84
2017-08-21T19:30:35.676Z,18.80
2017-08-21T19:33:03.065Z,18.74
2017-08-21T19:35:30.931Z,18.74
2017-08-21T19:37:58.334Z,18.73
2017-08-21T19:40:25.731Z,18.69
2017-08-21T19:42:53.241Z,18.65
2017-08-21T19:45:20.631Z,18.62
2017-08-21T19:47:48.027Z,18.57
2017-08-21T19:50:15.434Z,18.52
2017-08-21T19:52:42.840Z,18.51
2017-08-21T19:55:10.350Z,18.50
2017-08-21T19:57:37.774Z,18.51
2017-08-21T20:00:05.175Z,18.45
2017-08-21T20:02:32.579Z,18.53
2017-08-21T20:04:59.982Z,18.56
2017-08-21T20:07:27.422Z,18.60
2017-08-21T20:09:54.818Z,18.62
2017-08-21T20:12:22.216Z,18.63
2017-08-21T20:14:49.628Z,18.65
2017-08-21T20:17:17.026Z,18.65
2017-08-21T20:19:44.431Z,18.62
2017-08-21T20:22:11.822Z,18.58
2017-08-21T20:24:39.234Z,18.51
2017-08-21T20:27:06.627Z,18.47
2017-08-21T20:29:34.026Z,18.42
2017-08-21T20:32:01.426Z,18.45
2017-08-21T20:34:28.822Z,18.45
2017-08-21T20:36:56.375Z,18.42
2017-08-21T20:39:23.770Z,18.36
2017-08-21T20:41:51.166Z,18.30
2017-08-21T20:44:18.566Z,18.25
2017-08-21T20:46:45.960Z,18.17
2017-08-21T20:49:13.516Z,18.09
2017-08-21T20:51:40.911Z,18.02
2017-08-21T20:54:08.312Z,17.94
2017-08-21T20:56:35.714Z,17.87
2017-08-21T20:59:03.116Z,17.87
2017-08-21T21:01:30.527Z,17.91
2017-08-21T21:03:57.923Z,17.93
2017-08-21T21:06:25.323Z,17.85
2017-08-21T21:08:52.723Z,17.80
2017-08-21T21:11:20.118Z,17.73
2017-08-21T21:13:47.534Z,17.78
2017-08-21T21:16:14.931Z,17.71
2017-08-21T21:18:42.327Z,17.70
2017-08-21T21:21:09.738Z,17.64
2017-08-21T21:23:37.153Z,17.69
2017-08-21T21:26:04.698Z,17.58
2017-08-21T21:28:32.098Z,17.63
2017-08-21T21:30:59.487Z,17.65
2017-08-21T21:33:26.887Z,17.63
2017-08-21T21:35:54.307Z,17.59
2017-08-21T21:38:21.711Z,17.55
2017-08-21T21:40:49.106Z,17.49
2017-08-21T21:43:16.503Z,17.52
2017-08-21T21:45:43.902Z,17.51
2017-08-21T21:48:11.298Z,17.50
2017-08-21T21:50:38.738Z,17.48
2017-08-21T21:53:06.135Z,17.46
2017-08-21T21:55:33.539Z,17.47
2017-08-21T21:58:00.931Z,17.49
2017-08-21T22:00:28.327Z,17.50
2017-08-21T22:02:55.743Z,17.54
2017-08-21T22:05:23.138Z,17.48
2017-08-21T22:07:50.531Z,17.46
2017-08-21T22:10:17.931Z,17.48
2017-08-21T22:12:45.327Z,17.52
2017-08-21T22:15:12.874Z,17.55
2017-08-21T22:17:40.271Z,17.54
2017-08-21T22:20:07.666Z,17.47
2017-08-21T22:22:35.071Z,17.42
2017-08-21T22:25:02.466Z,17.40
2017-08-21T22:27:30.019Z,17.38
2017-08-21T22:29:57.418Z,17.31
2017-08-21T22:32:24.813Z,17.28
2017-08-21T22:34:52.214Z,17.35
2017-08-21T22:37:19.607Z,17.39
2017-08-21T22:39:47.051Z,17.34
2017-08-21T22:42:14.442Z,17.34
2017-08-21T22:44:41.842Z,17.32
2017-08-21T22:47:09.243Z,17.27
2017-08-21T22:49:36.638Z,17.18
2017-08-21T22:52:04.142Z,17.09
2017-08-21T22:54:31.542Z,16.96
2017-08-21T22:56:58.947Z,16.89
2017-08-21T22:59:26.347Z,16.83
2017-08-21T23:01:53.748Z,16.67
2017-08-21T23:04:21.302Z,16.48
2017-08-21T23:06:48.703Z,16.37
2017-08-21T23:09:16.105Z,16.29
2017-08-21T23:11:43.506Z,16.20
2017-08-21T23:14:10.908Z,16.09
2017-08-21T23:16:38.411Z,15.98
2017-08-21T23:19:05.814Z,15.92
2017-08-21T23:21:33.207Z,15.89
2017-08-21T23:24:00.610Z,15.83
2017-08-21T23:26:28.010Z,15.79
2017-08-21T23:28:55.451Z,15.76
2017-08-21T23:31:22.843Z,15.75
2017-08-21T23:33:50.247Z,15.72
2017-08-21T23:36:17.654Z,15.65
2017-08-21T23:38:45.051Z,15.64
2017-08-21T23:41:12.473Z,15.61
2017-08-21T23:43:39.878Z,15.55
2017-08-21T23:46:07.278Z,15.53
2017-08-21T23:48:34.678Z,15.51
2017-08-21T23:51:02.074Z,15.55
2017-08-21T23:53:29.553Z,15.54
2017-08-21T23:55:56.938Z,15.48
2017-08-21T23:58:24.342Z,15.47
